sensor_id;sensor_type;location;lat;lon;timestamp;temperature;humidity
12957;DHT22;6543;48.836;10.092;2023-07-20T00:01:49;18.60;99.90
12957;DHT22;6543;48.836;10.092;2023-07-20T00:04:16;18.60;99.90
12957;DHT22;6543;48.836;10.092;2023-07-20T00:06:43;18.60;99.90
12957;DHT22;6543;48.836;10.092;2023-07-20T00:09:11;18.60;99.90
12957;DHT22;6543;48.836;10.092;2023-07-20T00:11:39;18.70;99.90
12957;DHT22;6543;48.836;10.092;2023-07-20T00:14:06;18.60;99.90
12957;DHT22;6543;48.836;10.092;2023-07-20T00:16:33;18.70;99.90
12957;DHT22;6543;48.836;10.092;2023-07-20T00:19:00;18.70;99.90
12957;DHT22;6543;48.836;10.092;2023-07-20T00:21:27;18.70;99.90
12957;DHT22;6543;48.836;10.092;2023-07-20T00:23:53;18.60;99.90
12957;DHT22;6543;48.836;10.092;2023-07-20T00:26:20;18.60;99.90
12957;DHT22;6543;48.836;10.092;2023-07-20T00:28:49;18.60;99.90
12957;DHT22;6543;48.836;10.092;2023-07-20T00:31:16;18.60;99.90
12957;DHT22;6543;48.836;10.092;2023-07-20T00:33:43;18.60;99.90
12957;DHT22;6543;48.836;10.092;2023-07-20T00:36:10;18.70;99.90
12957;DHT22;6543;48.836;10.092;2023-07-20T00:38:37;18.70;99.90
12957;DHT22;6543;48.836;10.092;2023-07-20T00:41:04;18.70;99.90
12957;DHT22;6543;48.836;10.092;2023-07-20T00:43:31;18.70;99.90
12957;DHT22;6543;48.836;10.092;2023-07-20T00:45:59;18.70;99.90
12957;DHT22;6543;48.836;10.092;2023-07-20T00:48:28;18.70;99.90
12957;DHT22;6543;48.836;10.092;2023-07-20T00:50:55;18.70;99.90
12957;DHT22;6543;48.836;10.092;2023-07-20T00:53:23;18.70;99.90
12957;DHT22;6543;48.836;10.092;2023-07-20T00:55:50;18.70;99.90
12957;DHT22;6543;48.836;10.092;2023-07-20T00:58:17;18.70;99.90
12957;DHT22;6543;48.836;10.092;2023-07-20T01:00:44;18.70;99.90
12957;DHT22;6543;48.836;10.092;2023-07-20T01:03:12;18.70;99.90
12957;DHT22;6543;48.836;10.092;2023-07-20T01:05:45;18.70;99.90
12957;DHT22;6543;48.836;10.092;2023-07-20T01:08:21;18.60;99.90
12957;DHT22;6543;48.836;10.092;2023-07-20T01:10:53;18.60;99.90
12957;DHT22;6543;48.836;10.092;2023-07-20T01:13:21;18.60;99.90
12957;DHT22;6543;48.836;10.092;2023-07-20T01:15:56;18.60;99.90
12957;DHT22;6543;48.836;10.092;2023-07-20T01:18:25;18.60;99.90
12957;DHT22;6543;48.836;10.092;2023-07-20T01:20:55;18.60;99.90
12957;DHT22;6543;48.836;10.092;2023-07-20T01:23:45;18.50;99.90
12957;DHT22;6543;48.836;10.092;2023-07-20T01:26:37;18.50;99.90
12957;DHT22;6543;48.836;10.092;2023-07-20T01:29:15;18.50;99.90
12957;DHT22;6543;48.836;10.092;2023-07-20T01:31:47;18.50;99.90
12957;DHT22;6543;48.836;10.092;2023-07-20T01:34:17;18.40;99.90
12957;DHT22;6543;48.836;10.092;2023-07-20T01:36:45;18.40;99.90
12957;DHT22;6543;48.836;10.092;2023-07-20T01:39:12;18.40;99.90
12957;DHT22;6543;48.836;10.092;2023-07-20T01:41:40;18.40;99.90
12957;DHT22;6543;48.836;10.092;2023-07-20T01:44:08;18.30;99.90
12957;DHT22;6543;48.836;10.092;2023-07-20T01:46:35;18.30;99.90
12957;DHT22;6543;48.836;10.092;2023-07-20T01:49:03;18.20;99.90
12957;DHT22;6543;48.836;10.092;2023-07-20T01:51:30;18.10;99.90
12957;DHT22;6543;48.836;10.092;2023-07-20T01:53:57;18.10;99.90
12957;DHT22;6543;48.836;10.092;2023-07-20T01:56:25;18.00;99.90
12957;DHT22;6543;48.836;10.092;2023-07-20T01:58:52;17.90;99.90
12957;DHT22;6543;48.836;10.092;2023-07-20T02:01:18;17.80;99.90
12957;DHT22;6543;48.836;10.092;2023-07-20T02:03:45;17.70;99.90
12957;DHT22;6543;48.836;10.092;2023-07-20T02:06:14;17.70;99.90
12957;DHT22;6543;48.836;10.092;2023-07-20T02:08:41;17.60;99.90
12957;DHT22;6543;48.836;10.092;2023-07-20T02:11:08;17.50;99.90
12957;DHT22;6543;48.836;10.092;2023-07-20T02:13:35;17.40;99.90
12957;DHT22;6543;48.836;10.092;2023-07-20T02:16:02;17.40;99.90
12957;DHT22;6543;48.836;10.092;2023-07-20T02:18:29;17.30;99.90
12957;DHT22;6543;48.836;10.092;2023-07-20T02:20:55;17.20;99.90
12957;DHT22;6543;48.836;10.092;2023-07-20T02:23:24;17.20;99.90
12957;DHT22;6543;48.836;10.092;2023-07-20T02:25:51;17.20;99.90
12957;DHT22;6543;48.836;10.092;2023-07-20T02:28:18;17.20;99.90
12957;DHT22;6543;48.836;10.092;2023-07-20T02:30:44;17.10;99.90
12957;DHT22;6543;48.836;10.092;2023-07-20T02:33:11;17.10;99.90
12957;DHT22;6543;48.836;10.092;2023-07-20T02:35:40;17.00;99.90
12957;DHT22;6543;48.836;10.092;2023-07-20T02:38:07;17.00;99.90
12957;DHT22;6543;48.836;10.092;2023-07-20T02:40:35;16.90;99.90
12957;DHT22;6543;48.836;10.092;2023-07-20T02:43:02;17.00;99.90
12957;DHT22;6543;48.836;10.092;2023-07-20T02:45:29;16.90;99.90
12957;DHT22;6543;48.836;10.092;2023-07-20T02:47:56;16.90;99.90
12957;DHT22;6543;48.836;10.092;2023-07-20T02:50:23;17.00;99.90
12957;DHT22;6543;48.836;10.092;2023-07-20T02:52:49;17.00;99.90
12957;DHT22;6543;48.836;10.092;2023-07-20T02:55:16;17.00;99.90
12957;DHT22;6543;48.836;10.092;2023-07-20T02:57:44;17.00;99.90
12957;DHT22;6543;48.836;10.092;2023-07-20T03:00:12;16.90;99.90
12957;DHT22;6543;48.836;10.092;2023-07-20T03:02:41;16.90;99.90
12957;DHT22;6543;48.836;10.092;2023-07-20T03:05:09;16.80;99.90
12957;DHT22;6543;48.836;10.092;2023-07-20T03:07:35;16.80;99.90
12957;DHT22;6543;48.836;10.092;2023-07-20T03:10:03;16.80;99.90
12957;DHT22;6543;48.836;10.092;2023-07-20T03:12:32;16.90;99.90
12957;DHT22;6543;48.836;10.092;2023-07-20T03:15:01;16.80;99.90
12957;DHT22;6543;48.836;10.092;2023-07-20T03:17:28;16.70;99.90
12957;DHT22;6543;48.836;10.092;2023-07-20T03:19:55;16.70;99.90
12957;DHT22;6543;48.836;10.092;2023-07-20T03:22:22;16.70;99.90
12957;DHT22;6543;48.836;10.092;2023-07-20T03:24:49;16.60;99.90
12957;DHT22;6543;48.836;10.092;2023-07-20T03:27:16;16.50;99.90
12957;DHT22;6543;48.836;10.092;2023-07-20T03:29:43;16.40;99.90
12957;DHT22;6543;48.836;10.092;2023-07-20T03:32:11;16.40;99.90
12957;DHT22;6543;48.836;10.092;2023-07-20T03:34:38;16.40;99.90
12957;DHT22;6543;48.836;10.092;2023-07-20T03:37:05;16.30;99.90
12957;DHT22;6543;48.836;10.092;2023-07-20T03:39:32;16.20;99.90
12957;DHT22;6543;48.836;10.092;2023-07-20T03:41:59;16.10;99.90
12957;DHT22;6543;48.836;10.092;2023-07-20T03:44:26;16.10;99.90
12957;DHT22;6543;48.836;10.092;2023-07-20T03:46:53;16.00;99.90
12957;DHT22;6543;48.836;10.092;2023-07-20T03:49:21;16.00;99.90
12957;DHT22;6543;48.836;10.092;2023-07-20T03:51:48;16.00;99.90
12957;DHT22;6543;48.836;10.092;2023-07-20T03:54:14;15.90;99.90
12957;DHT22;6543;48.836;10.092;2023-07-20T03:56:41;15.90;99.90
12957;DHT22;6543;48.836;10.092;2023-07-20T03:59:08;15.90;99.90
12957;DHT22;6543;48.836;10.092;2023-07-20T04:01:35;15.90;99.90
12957;DHT22;6543;48.836;10.092;2023-07-20T04:04:04;15.90;99.90
12957;DHT22;6543;48.836;10.092;2023-07-20T04:06:32;15.90;99.90
12957;DHT22;6543;48.836;10.092;2023-07-20T04:08:59;15.90;99.90
12957;DHT22;6543;48.836;10.092;2023-07-20T04:11:26;15.90;99.90
12957;DHT22;6543;48.836;10.092;2023-07-20T04:13:52;15.90;99.90
12957;DHT22;6543;48.836;10.092;2023-07-20T04:16:20;15.90;99.90
12957;DHT22;6543;48.836;10.092;2023-07-20T04:18:47;16.10;99.90
12957;DHT22;6543;48.836;10.092;2023-07-20T04:21:13;16.00;99.90
12957;DHT22;6543;48.836;10.092;2023-07-20T04:23:42;16.10;99.90
12957;DHT22;6543;48.836;10.092;2023-07-20T04:26:08;16.00;99.90
12957;DHT22;6543;48.836;10.092;2023-07-20T04:28:38;16.00;99.90
12957;DHT22;6543;48.836;10.092;2023-07-20T04:31:12;16.00;99.90
12957;DHT22;6543;48.836;10.092;2023-07-20T04:33:39;16.10;99.90
12957;DHT22;6543;48.836;10.092;2023-07-20T04:36:07;16.10;99.90
12957;DHT22;6543;48.836;10.092;2023-07-20T04:38:35;16.20;99.90
12957;DHT22;6543;48.836;10.092;2023-07-20T04:41:03;16.10;99.90
12957;DHT22;6543;48.836;10.092;2023-07-20T04:43:29;16.10;99.90
12957;DHT22;6543;48.836;10.092;2023-07-20T04:45:56;16.10;99.90
12957;DHT22;6543;48.836;10.092;2023-07-20T04:48:24;16.20;99.90
12957;DHT22;6543;48.836;10.092;2023-07-20T04:50:50;16.30;99.90
12957;DHT22;6543;48.836;10.092;2023-07-20T04:53:17;16.30;99.90
12957;DHT22;6543;48.836;10.092;2023-07-20T04:55:48;16.40;99.90
12957;DHT22;6543;48.836;10.092;2023-07-20T04:58:19;16.40;99.90
12957;DHT22;6543;48.836;10.092;2023-07-20T05:00:45;16.40;99.90
12957;DHT22;6543;48.836;10.092;2023-07-20T05:03:12;16.50;99.90
12957;DHT22;6543;48.836;10.092;2023-07-20T05:05:39;16.60;99.90
12957;DHT22;6543;48.836;10.092;2023-07-20T05:08:06;16.70;99.90
12957;DHT22;6543;48.836;10.092;2023-07-20T05:10:33;16.70;99.90
12957;DHT22;6543;48.836;10.092;2023-07-20T05:13:00;16.70;99.90
12957;DHT22;6543;48.836;10.092;2023-07-20T05:15:28;16.90;99.90
12957;DHT22;6543;48.836;10.092;2023-07-20T05:17:55;16.80;99.90
12957;DHT22;6543;48.836;10.092;2023-07-20T05:20:21;16.90;99.90
12957;DHT22;6543;48.836;10.092;2023-07-20T05:22:48;17.00;99.90
12957;DHT22;6543;48.836;10.092;2023-07-20T05:25:15;17.00;99.90
12957;DHT22;6543;48.836;10.092;2023-07-20T05:27:44;17.00;99.90
12957;DHT22;6543;48.836;10.092;2023-07-20T05:30:11;17.10;99.90
12957;DHT22;6543;48.836;10.092;2023-07-20T05:32:40;17.10;99.90
12957;DHT22;6543;48.836;10.092;2023-07-20T05:35:07;17.20;99.90
12957;DHT22;6543;48.836;10.092;2023-07-20T05:37:37;17.20;99.90
12957;DHT22;6543;48.836;10.092;2023-07-20T05:40:05;17.30;99.90
12957;DHT22;6543;48.836;10.092;2023-07-20T05:42:33;17.40;99.90
12957;DHT22;6543;48.836;10.092;2023-07-20T05:45:00;17.50;99.90
12957;DHT22;6543;48.836;10.092;2023-07-20T05:47:26;17.40;99.90
12957;DHT22;6543;48.836;10.092;2023-07-20T05:49:56;17.50;99.90
12957;DHT22;6543;48.836;10.092;2023-07-20T05:52:23;17.50;99.90
12957;DHT22;6543;48.836;10.092;2023-07-20T05:54:50;17.50;99.90
12957;DHT22;6543;48.836;10.092;2023-07-20T05:57:17;17.80;99.90
12957;DHT22;6543;48.836;10.092;2023-07-20T05:59:44;17.80;99.90
12957;DHT22;6543;48.836;10.092;2023-07-20T06:02:11;18.40;99.90
12957;DHT22;6543;48.836;10.092;2023-07-20T06:04:39;19.10;99.90
12957;DHT22;6543;48.836;10.092;2023-07-20T06:07:07;18.60;99.90
12957;DHT22;6543;48.836;10.092;2023-07-20T06:09:34;18.70;99.90
12957;DHT22;6543;48.836;10.092;2023-07-20T06:12:01;18.30;99.90
12957;DHT22;6543;48.836;10.092;2023-07-20T06:14:29;18.40;99.90
12957;DHT22;6543;48.836;10.092;2023-07-20T06:16:56;18.40;99.90
12957;DHT22;6543;48.836;10.092;2023-07-20T06:19:23;19.00;99.90
12957;DHT22;6543;48.836;10.092;2023-07-20T06:21:50;18.70;99.90
12957;DHT22;6543;48.836;10.092;2023-07-20T06:24:18;18.70;99.90
12957;DHT22;6543;48.836;10.092;2023-07-20T06:26:45;19.00;99.90
12957;DHT22;6543;48.836;10.092;2023-07-20T06:29:12;18.80;99.90
12957;DHT22;6543;48.836;10.092;2023-07-20T06:31:39;18.70;99.90
12957;DHT22;6543;48.836;10.092;2023-07-20T06:34:05;19.10;99.90
12957;DHT22;6543;48.836;10.092;2023-07-20T06:36:32;19.20;99.90
12957;DHT22;6543;48.836;10.092;2023-07-20T06:38:59;18.80;99.90
12957;DHT22;6543;48.836;10.092;2023-07-20T06:41:29;18.90;99.90
12957;DHT22;6543;48.836;10.092;2023-07-20T06:43:56;18.00;99.90
12957;DHT22;6543;48.836;10.092;2023-07-20T06:46:24;19.00;99.90
12957;DHT22;6543;48.836;10.092;2023-07-20T06:48:52;19.70;99.90
12957;DHT22;6543;48.836;10.092;2023-07-20T06:51:19;20.10;99.90
12957;DHT22;6543;48.836;10.092;2023-07-20T06:53:46;20.00;99.90
12957;DHT22;6543;48.836;10.092;2023-07-20T06:56:12;19.60;99.90
12957;DHT22;6543;48.836;10.092;2023-07-20T06:58:41;19.10;99.90
12957;DHT22;6543;48.836;10.092;2023-07-20T07:01:08;19.30;99.90
12957;DHT22;6543;48.836;10.092;2023-07-20T07:03:35;19.20;99.90
12957;DHT22;6543;48.836;10.092;2023-07-20T07:06:02;19.30;99.90
12957;DHT22;6543;48.836;10.092;2023-07-20T07:08:29;19.90;99.90
12957;DHT22;6543;48.836;10.092;2023-07-20T07:10:56;20.00;99.90
12957;DHT22;6543;48.836;10.092;2023-07-20T07:13:23;19.80;99.90
12957;DHT22;6543;48.836;10.092;2023-07-20T07:15:52;19.60;99.90
12957;DHT22;6543;48.836;10.092;2023-07-20T07:18:19;19.40;99.90
12957;DHT22;6543;48.836;10.092;2023-07-20T07:20:51;19.60;99.90
12957;DHT22;6543;48.836;10.092;2023-07-20T07:23:18;19.80;99.90
12957;DHT22;6543;48.836;10.092;2023-07-20T07:25:45;19.80;99.90
12957;DHT22;6543;48.836;10.092;2023-07-20T07:28:12;19.60;99.90
12957;DHT22;6543;48.836;10.092;2023-07-20T07:30:39;20.00;99.90
12957;DHT22;6543;48.836;10.092;2023-07-20T07:33:08;19.70;99.90
12957;DHT22;6543;48.836;10.092;2023-07-20T07:35:35;20.00;99.90
12957;DHT22;6543;48.836;10.092;2023-07-20T07:38:02;19.90;99.90
12957;DHT22;6543;48.836;10.092;2023-07-20T07:40:29;19.60;99.90
12957;DHT22;6543;48.836;10.092;2023-07-20T07:42:56;19.50;99.90
12957;DHT22;6543;48.836;10.092;2023-07-20T07:45:23;19.50;99.90
12957;DHT22;6543;48.836;10.092;2023-07-20T07:47:51;19.80;99.90
12957;DHT22;6543;48.836;10.092;2023-07-20T07:50:19;20.00;99.90
12957;DHT22;6543;48.836;10.092;2023-07-20T07:52:46;20.40;99.90
12957;DHT22;6543;48.836;10.092;2023-07-20T07:55:13;20.40;99.90
12957;DHT22;6543;48.836;10.092;2023-07-20T07:57:42;20.50;99.90
12957;DHT22;6543;48.836;10.092;2023-07-20T08:00:09;19.80;99.90
12957;DHT22;6543;48.836;10.092;2023-07-20T08:02:40;20.10;99.90
12957;DHT22;6543;48.836;10.092;2023-07-20T08:05:07;20.00;99.90
12957;DHT22;6543;48.836;10.092;2023-07-20T08:07:35;20.40;99.90
12957;DHT22;6543;48.836;10.092;2023-07-20T08:10:03;20.60;99.90
12957;DHT22;6543;48.836;10.092;2023-07-20T08:12:30;20.20;99.90
12957;DHT22;6543;48.836;10.092;2023-07-20T08:14:57;20.20;99.90
12957;DHT22;6543;48.836;10.092;2023-07-20T08:17:24;20.50;99.90
12957;DHT22;6543;48.836;10.092;2023-07-20T08:19:51;20.20;99.90
12957;DHT22;6543;48.836;10.092;2023-07-20T08:22:18;20.40;99.90
12957;DHT22;6543;48.836;10.092;2023-07-20T08:24:46;20.50;99.90
12957;DHT22;6543;48.836;10.092;2023-07-20T08:27:13;20.60;99.90
12957;DHT22;6543;48.836;10.092;2023-07-20T08:29:40;20.60;99.90
12957;DHT22;6543;48.836;10.092;2023-07-20T08:32:07;21.10;99.90
12957;DHT22;6543;48.836;10.092;2023-07-20T08:34:34;21.10;99.90
12957;DHT22;6543;48.836;10.092;2023-07-20T08:37:01;21.10;99.90
12957;DHT22;6543;48.836;10.092;2023-07-20T08:39:28;20.70;99.90
12957;DHT22;6543;48.836;10.092;2023-07-20T08:41:57;20.20;99.90
12957;DHT22;6543;48.836;10.092;2023-07-20T08:44:27;20.20;99.90
12957;DHT22;6543;48.836;10.092;2023-07-20T08:46:54;20.60;99.90
12957;DHT22;6543;48.836;10.092;2023-07-20T08:49:21;20.90;99.90
12957;DHT22;6543;48.836;10.092;2023-07-20T08:51:48;21.40;99.90
12957;DHT22;6543;48.836;10.092;2023-07-20T08:54:16;21.70;99.90
12957;DHT22;6543;48.836;10.092;2023-07-20T08:56:45;21.70;99.90
12957;DHT22;6543;48.836;10.092;2023-07-20T08:59:16;21.20;99.90
12957;DHT22;6543;48.836;10.092;2023-07-20T09:01:44;21.30;99.90
12957;DHT22;6543;48.836;10.092;2023-07-20T09:04:11;21.10;99.90
12957;DHT22;6543;48.836;10.092;2023-07-20T09:06:39;21.10;99.90
12957;DHT22;6543;48.836;10.092;2023-07-20T09:09:06;21.30;99.90
12957;DHT22;6543;48.836;10.092;2023-07-20T09:11:33;21.30;99.90
12957;DHT22;6543;48.836;10.092;2023-07-20T09:14:04;22.10;99.90
12957;DHT22;6543;48.836;10.092;2023-07-20T09:16:33;21.80;99.90
12957;DHT22;6543;48.836;10.092;2023-07-20T09:19:14;21.70;99.90
12957;DHT22;6543;48.836;10.092;2023-07-20T09:21:43;21.60;99.90
12957;DHT22;6543;48.836;10.092;2023-07-20T09:24:10;21.60;99.90
12957;DHT22;6543;48.836;10.092;2023-07-20T09:26:41;21.50;99.90
12957;DHT22;6543;48.836;10.092;2023-07-20T09:29:09;21.80;99.90
12957;DHT22;6543;48.836;10.092;2023-07-20T09:31:38;22.20;99.90
12957;DHT22;6543;48.836;10.092;2023-07-20T09:34:05;21.40;99.90
12957;DHT22;6543;48.836;10.092;2023-07-20T09:36:33;21.90;99.90
12957;DHT22;6543;48.836;10.092;2023-07-20T09:39:01;22.20;99.90
12957;DHT22;6543;48.836;10.092;2023-07-20T09:41:29;21.50;99.90
12957;DHT22;6543;48.836;10.092;2023-07-20T09:43:56;21.30;99.90
12957;DHT22;6543;48.836;10.092;2023-07-20T09:46:23;21.90;99.90
12957;DHT22;6543;48.836;10.092;2023-07-20T09:48:54;22.20;99.90
12957;DHT22;6543;48.836;10.092;2023-07-20T09:51:22;22.20;99.90
12957;DHT22;6543;48.836;10.092;2023-07-20T09:53:52;22.50;99.90
12957;DHT22;6543;48.836;10.092;2023-07-20T09:56:21;22.30;99.90
12957;DHT22;6543;48.836;10.092;2023-07-20T09:58:48;22.20;99.90
12957;DHT22;6543;48.836;10.092;2023-07-20T10:01:20;22.40;99.90
12957;DHT22;6543;48.836;10.092;2023-07-20T10:03:47;22.50;99.90
12957;DHT22;6543;48.836;10.092;2023-07-20T10:06:23;22.80;99.90
12957;DHT22;6543;48.836;10.092;2023-07-20T10:08:53;22.80;99.90
12957;DHT22;6543;48.836;10.092;2023-07-20T10:11:24;22.50;99.90
12957;DHT22;6543;48.836;10.092;2023-07-20T10:13:53;22.80;99.90
12957;DHT22;6543;48.836;10.092;2023-07-20T10:16:27;22.90;99.90
12957;DHT22;6543;48.836;10.092;2023-07-20T10:19:02;22.80;99.90
12957;DHT22;6543;48.836;10.092;2023-07-20T10:21:33;23.70;99.90
12957;DHT22;6543;48.836;10.092;2023-07-20T10:24:01;23.70;99.50
12957;DHT22;6543;48.836;10.092;2023-07-20T10:26:28;23.90;98.80
12957;DHT22;6543;48.836;10.092;2023-07-20T10:28:56;23.10;99.40
12957;DHT22;6543;48.836;10.092;2023-07-20T10:31:24;22.60;99.90
12957;DHT22;6543;48.836;10.092;2023-07-20T10:33:52;22.40;99.90
12957;DHT22;6543;48.836;10.092;2023-07-20T10:36:24;22.40;99.90
12957;DHT22;6543;48.836;10.092;2023-07-20T10:38:56;22.50;99.90
12957;DHT22;6543;48.836;10.092;2023-07-20T10:41:28;22.40;99.90
12957;DHT22;6543;48.836;10.092;2023-07-20T10:43:58;22.30;99.90
12957;DHT22;6543;48.836;10.092;2023-07-20T10:46:34;22.50;99.90
12957;DHT22;6543;48.836;10.092;2023-07-20T10:49:02;22.50;99.90
12957;DHT22;6543;48.836;10.092;2023-07-20T10:51:30;22.60;99.90
12957;DHT22;6543;48.836;10.092;2023-07-20T10:53:58;22.50;99.90
12957;DHT22;6543;48.836;10.092;2023-07-20T10:56:28;22.40;99.90
12957;DHT22;6543;48.836;10.092;2023-07-20T10:58:57;22.80;99.90
12957;DHT22;6543;48.836;10.092;2023-07-20T11:01:28;22.60;99.90
12957;DHT22;6543;48.836;10.092;2023-07-20T11:03:58;23.00;99.90
12957;DHT22;6543;48.836;10.092;2023-07-20T11:06:31;23.10;99.90
12957;DHT22;6543;48.836;10.092;2023-07-20T11:09:09;23.00;98.80
12957;DHT22;6543;48.836;10.092;2023-07-20T11:11:38;22.50;98.60
12957;DHT22;6543;48.836;10.092;2023-07-20T11:14:06;22.90;97.90
12957;DHT22;6543;48.836;10.092;2023-07-20T11:16:35;23.20;97.80
12957;DHT22;6543;48.836;10.092;2023-07-20T11:19:02;22.80;98.10
12957;DHT22;6543;48.836;10.092;2023-07-20T11:21:35;23.50;97.40
12957;DHT22;6543;48.836;10.092;2023-07-20T11:24:05;23.70;97.00
12957;DHT22;6543;48.836;10.092;2023-07-20T11:26:43;23.40;97.60
12957;DHT22;6543;48.836;10.092;2023-07-20T11:29:10;23.80;97.50
12957;DHT22;6543;48.836;10.092;2023-07-20T11:31:38;23.60;97.20
12957;DHT22;6543;48.836;10.092;2023-07-20T11:34:05;22.80;99.00
12957;DHT22;6543;48.836;10.092;2023-07-20T11:36:33;22.80;99.30
12957;DHT22;6543;48.836;10.092;2023-07-20T11:39:00;22.70;99.90
12957;DHT22;6543;48.836;10.092;2023-07-20T11:41:31;22.60;99.50
12957;DHT22;6543;48.836;10.092;2023-07-20T11:43:59;23.30;98.30
12957;DHT22;6543;48.836;10.092;2023-07-20T11:46:27;23.70;96.70
12957;DHT22;6543;48.836;10.092;2023-07-20T11:48:58;23.80;96.00
12957;DHT22;6543;48.836;10.092;2023-07-20T11:51:26;23.70;96.30
12957;DHT22;6543;48.836;10.092;2023-07-20T11:53:54;24.40;96.00
12957;DHT22;6543;48.836;10.092;2023-07-20T11:56:23;24.50;95.70
12957;DHT22;6543;48.836;10.092;2023-07-20T11:58:55;24.60;95.70
12957;DHT22;6543;48.836;10.092;2023-07-20T12:01:23;24.20;95.90
12957;DHT22;6543;48.836;10.092;2023-07-20T12:03:50;24.40;94.60
12957;DHT22;6543;48.836;10.092;2023-07-20T12:06:18;24.20;94.40
12957;DHT22;6543;48.836;10.092;2023-07-20T12:08:44;23.50;94.90
12957;DHT22;6543;48.836;10.092;2023-07-20T12:11:11;23.80;95.10
12957;DHT22;6543;48.836;10.092;2023-07-20T12:13:40;23.80;94.70
12957;DHT22;6543;48.836;10.092;2023-07-20T12:16:14;23.30;94.90
12957;DHT22;6543;48.836;10.092;2023-07-20T12:18:42;23.40;94.90
12957;DHT22;6543;48.836;10.092;2023-07-20T12:21:10;23.50;95.40
12957;DHT22;6543;48.836;10.092;2023-07-20T12:23:38;23.10;95.20
12957;DHT22;6543;48.836;10.092;2023-07-20T12:26:09;22.90;95.30
12957;DHT22;6543;48.836;10.092;2023-07-20T12:28:39;23.30;95.30
12957;DHT22;6543;48.836;10.092;2023-07-20T12:31:06;23.10;94.90
12957;DHT22;6543;48.836;10.092;2023-07-20T12:33:35;23.50;94.90
12957;DHT22;6543;48.836;10.092;2023-07-20T12:36:02;24.00;94.40
12957;DHT22;6543;48.836;10.092;2023-07-20T12:38:29;24.20;94.10
12957;DHT22;6543;48.836;10.092;2023-07-20T12:40:57;24.50;93.80
12957;DHT22;6543;48.836;10.092;2023-07-20T12:43:25;24.30;93.30
12957;DHT22;6543;48.836;10.092;2023-07-20T12:45:53;23.60;93.10
12957;DHT22;6543;48.836;10.092;2023-07-20T12:48:20;24.10;92.80
12957;DHT22;6543;48.836;10.092;2023-07-20T12:50:48;23.40;92.80
12957;DHT22;6543;48.836;10.092;2023-07-20T12:53:15;23.10;93.20
12957;DHT22;6543;48.836;10.092;2023-07-20T12:55:42;23.30;93.20
12957;DHT22;6543;48.836;10.092;2023-07-20T12:58:11;23.10;93.00
12957;DHT22;6543;48.836;10.092;2023-07-20T13:00:38;23.00;92.70
12957;DHT22;6543;48.836;10.092;2023-07-20T13:03:06;23.40;92.50
12957;DHT22;6543;48.836;10.092;2023-07-20T13:05:34;23.70;91.70
12957;DHT22;6543;48.836;10.092;2023-07-20T13:08:03;23.60;91.80
12957;DHT22;6543;48.836;10.092;2023-07-20T13:10:31;23.60;91.60
12957;DHT22;6543;48.836;10.092;2023-07-20T13:12:57;24.20;91.20
12957;DHT22;6543;48.836;10.092;2023-07-20T13:15:30;24.20;90.90
12957;DHT22;6543;48.836;10.092;2023-07-20T13:17:57;24.20;90.40
12957;DHT22;6543;48.836;10.092;2023-07-20T13:20:25;24.60;90.30
12957;DHT22;6543;48.836;10.092;2023-07-20T13:22:52;24.50;90.30
12957;DHT22;6543;48.836;10.092;2023-07-20T13:25:20;24.70;90.40
12957;DHT22;6543;48.836;10.092;2023-07-20T13:27:47;24.40;90.20
12957;DHT22;6543;48.836;10.092;2023-07-20T13:30:14;24.20;89.50
12957;DHT22;6543;48.836;10.092;2023-07-20T13:32:42;23.90;88.90
12957;DHT22;6543;48.836;10.092;2023-07-20T13:35:09;24.20;89.20
12957;DHT22;6543;48.836;10.092;2023-07-20T13:37:36;24.30;88.50
12957;DHT22;6543;48.836;10.092;2023-07-20T13:40:04;24.40;89.00
12957;DHT22;6543;48.836;10.092;2023-07-20T13:42:33;24.50;88.70
12957;DHT22;6543;48.836;10.092;2023-07-20T13:44:59;24.60;89.10
12957;DHT22;6543;48.836;10.092;2023-07-20T13:47:27;25.00;88.00
12957;DHT22;6543;48.836;10.092;2023-07-20T13:49:54;24.50;86.90
12957;DHT22;6543;48.836;10.092;2023-07-20T13:52:21;24.80;86.80
12957;DHT22;6543;48.836;10.092;2023-07-20T13:54:48;25.10;86.80
12957;DHT22;6543;48.836;10.092;2023-07-20T13:57:15;25.00;86.70
12957;DHT22;6543;48.836;10.092;2023-07-20T13:59:43;25.30;86.80
12957;DHT22;6543;48.836;10.092;2023-07-20T14:02:10;24.70;86.60
12957;DHT22;6543;48.836;10.092;2023-07-20T14:04:38;24.70;86.40
12957;DHT22;6543;48.836;10.092;2023-07-20T14:07:05;24.60;86.00
12957;DHT22;6543;48.836;10.092;2023-07-20T14:09:32;24.20;85.90
12957;DHT22;6543;48.836;10.092;2023-07-20T14:11:59;24.00;86.50
12957;DHT22;6543;48.836;10.092;2023-07-20T14:14:26;24.40;86.60
12957;DHT22;6543;48.836;10.092;2023-07-20T14:16:54;24.70;85.90
12957;DHT22;6543;48.836;10.092;2023-07-20T14:19:22;24.10;85.90
12957;DHT22;6543;48.836;10.092;2023-07-20T14:21:50;24.00;86.00
12957;DHT22;6543;48.836;10.092;2023-07-20T14:24:16;24.50;85.80
12957;DHT22;6543;48.836;10.092;2023-07-20T14:26:43;24.70;85.50
12957;DHT22;6543;48.836;10.092;2023-07-20T14:29:10;24.90;85.30
12957;DHT22;6543;48.836;10.092;2023-07-20T14:31:37;25.10;85.40
12957;DHT22;6543;48.836;10.092;2023-07-20T14:34:05;25.00;85.80
12957;DHT22;6543;48.836;10.092;2023-07-20T14:36:32;25.10;85.00
12957;DHT22;6543;48.836;10.092;2023-07-20T14:38:59;24.70;84.30
12957;DHT22;6543;48.836;10.092;2023-07-20T14:41:26;24.20;84.60
12957;DHT22;6543;48.836;10.092;2023-07-20T14:43:52;24.30;84.90
12957;DHT22;6543;48.836;10.092;2023-07-20T14:46:19;24.40;84.30
12957;DHT22;6543;48.836;10.092;2023-07-20T14:48:46;24.20;83.90
12957;DHT22;6543;48.836;10.092;2023-07-20T14:51:15;24.50;83.70
12957;DHT22;6543;48.836;10.092;2023-07-20T14:53:41;25.20;82.40
12957;DHT22;6543;48.836;10.092;2023-07-20T14:56:08;25.50;82.20
12957;DHT22;6543;48.836;10.092;2023-07-20T14:58:35;26.70;80.60
12957;DHT22;6543;48.836;10.092;2023-07-20T15:01:03;26.80;78.60
12957;DHT22;6543;48.836;10.092;2023-07-20T15:03:29;26.40;78.90
12957;DHT22;6543;48.836;10.092;2023-07-20T15:05:57;26.20;79.20
12957;DHT22;6543;48.836;10.092;2023-07-20T15:08:25;25.20;80.00
12957;DHT22;6543;48.836;10.092;2023-07-20T15:10:52;25.30;80.30
12957;DHT22;6543;48.836;10.092;2023-07-20T15:13:19;26.40;79.40
12957;DHT22;6543;48.836;10.092;2023-07-20T15:15:45;26.20;78.40
12957;DHT22;6543;48.836;10.092;2023-07-20T15:18:13;27.50;76.20
12957;DHT22;6543;48.836;10.092;2023-07-20T15:20:40;28.40;75.80
12957;DHT22;6543;48.836;10.092;2023-07-20T15:23:07;28.90;75.60
12957;DHT22;6543;48.836;10.092;2023-07-20T15:25:35;28.20;75.70
12957;DHT22;6543;48.836;10.092;2023-07-20T15:28:03;27.40;75.30
12957;DHT22;6543;48.836;10.092;2023-07-20T15:30:29;26.10;76.70
12957;DHT22;6543;48.836;10.092;2023-07-20T15:32:56;26.70;77.20
12957;DHT22;6543;48.836;10.092;2023-07-20T15:35:23;27.60;76.20